Time;durP1;ratioP1;P1;durP2;ratioP2;P2;SDS_P1;SDS_P2;PMS_P1;PMS_P2;Temp;Humidity;BMP_temperature;BMP_pressure;BME280_temperature;BME280_humidity;BME280_pressure;Samples;Min_cycle;Max_cycle;Signal;HPM_P1;HPM_P2
2021/03/23 00:01:58;;;;;;;5.28;2.65;;;;;;;;;;5054628;28;20053;-64
2021/03/23 00:04:43;;;;;;;6.88;2.75;;;;;;;;;;5054008;28;20041;-64
2021/03/23 00:07:29;;;;;;;3.50;2.42;;;;;;;;;;5054607;28;20049;-64
2021/03/23 00:10:14;;;;;;;6.45;2.53;;;;;;;;;;5054506;28;20052;-64
2021/03/23 00:12:59;;;;;;;6.97;3.85;;;;;;;;;;5068127;28;20080;-64
2021/03/23 00:15:45;;;;;;;4.57;2.65;;;;;;;;;;5074012;28;20037;-64
2021/03/23 00:18:30;;;;;;;5.13;2.70;;;;;;;;;;5074385;28;20048;-64
2021/03/23 00:21:16;;;;;;;3.67;2.75;;;;;;;;;;5071005;28;20068;-64
2021/03/23 00:24:02;;;;;;;5.60;2.53;;;;;;;;;;5054296;28;20045;-64
2021/03/23 00:26:47;;;;;;;3.35;2.25;;;;;;;;;;5054079;28;20053;-64
2021/03/23 00:29:33;;;;;;;4.05;2.35;;;;;;;;;;5054521;28;20399;-64
2021/03/23 00:32:18;;;;;;;4.18;2.83;;;;;;;;;;5054254;28;20041;-64
2021/03/23 00:35:04;;;;;;;5.65;2.60;;;;;;;;;;5067271;28;20510;-64
2021/03/23 00:37:51;;;;;;;5.43;2.15;;;;;;;;;;5073928;28;20049;-64
2021/03/23 00:40:36;;;;;;;5.10;2.28;;;;;;;;;;5073021;28;20131;-64
2021/03/23 00:43:22;;;;;;;3.63;2.15;;;;;;;;;;5033913;28;20504;-64
2021/03/23 00:46:08;;;;;;;5.30;2.22;;;;;;;;;;5038620;28;20041;-64
2021/03/23 00:48:53;;;;;;;5.13;2.05;;;;;;;;;;5053875;28;20045;-64
2021/03/23 00:51:38;;;;;;;5.82;2.33;;;;;;;;;;5053508;28;20391;-64
2021/03/23 00:54:26;;;;;;;5.05;2.38;;;;;;;;;;5052272;28;20498;-64
2021/03/23 00:57:11;;;;;;;3.47;2.17;;;;;;;;;;5053740;28;20053;-64
2021/03/23 00:59:56;;;;;;;5.07;1.92;;;;;;;;;;5053248;28;20041;-64
2021/03/23 01:02:43;;;;;;;6.53;3.13;;;;;;;;;;5053446;28;20064;-64
2021/03/23 01:05:31;;;;;;;3.85;2.22;;;;;;;;;;5052989;28;20037;-64
2021/03/23 01:08:16;;;;;;;5.75;2.80;;;;;;;;;;5053450;28;20048;-64
2021/03/23 01:11:02;;;;;;;3.75;2.50;;;;;;;;;;5052984;28;20045;-63
2021/03/23 01:13:47;;;;;;;5.63;2.70;;;;;;;;;;5053344;28;20045;-64
2021/03/23 01:16:33;;;;;;;7.00;2.35;;;;;;;;;;5053141;28;20455;-64
2021/03/23 01:19:18;;;;;;;5.53;2.83;;;;;;;;;;5052098;28;20049;-64
2021/03/23 01:22:03;;;;;;;4.50;3.13;;;;;;;;;;5052945;28;20053;-64
2021/03/23 01:24:48;;;;;;;4.07;2.83;;;;;;;;;;5052790;28;20053;-64
2021/03/23 01:27:34;;;;;;;4.85;2.92;;;;;;;;;;5053405;28;20053;-64
2021/03/23 01:30:20;;;;;;;5.93;2.92;;;;;;;;;;5053073;28;20053;-64
2021/03/23 01:33:06;;;;;;;7.00;3.63;;;;;;;;;;5033020;28;20060;-64
2021/03/23 01:35:51;;;;;;;4.95;3.28;;;;;;;;;;5032687;28;20068;-64
2021/03/23 01:38:37;;;;;;;6.88;2.97;;;;;;;;;;5032785;28;20416;-64
2021/03/23 01:41:22;;;;;;;5.88;3.40;;;;;;;;;;5037890;28;20132;-64
2021/03/23 01:44:08;;;;;;;7.03;3.47;;;;;;;;;;5052650;28;20059;-64
2021/03/23 01:46:54;;;;;;;7.47;3.90;;;;;;;;;;5052739;28;20049;-64
2021/03/23 01:49:41;;;;;;;8.13;4.47;;;;;;;;;;5052632;28;20045;-63
2021/03/23 01:52:27;;;;;;;10.82;4.72;;;;;;;;;;5051278;28;20056;-64
2021/03/23 01:55:12;;;;;;;8.07;4.18;;;;;;;;;;5051049;28;20072;-64
2021/03/23 01:57:57;;;;;;;10.57;3.83;;;;;;;;;;5052493;28;20139;-64
2021/03/23 02:00:44;;;;;;;5.38;4.10;;;;;;;;;;5051466;28;20041;-64
2021/03/23 02:03:29;;;;;;;8.88;4.88;;;;;;;;;;5051850;28;20495;-64
2021/03/23 02:06:28;;;;;;;10.23;4.53;;;;;;;;;;5051846;28;20045;-64
2021/03/23 02:09:17;;;;;;;8.45;4.65;;;;;;;;;;5052238;28;20048;-64
2021/03/23 02:12:12;;;;;;;7.15;4.05;;;;;;;;;;5050446;28;20072;-64
2021/03/23 02:14:57;;;;;;;6.47;3.95;;;;;;;;;;5051957;28;20052;-64
2021/03/23 02:17:43;;;;;;;6.68;3.90;;;;;;;;;;5052044;28;20049;-64
2021/03/23 02:20:28;;;;;;;7.65;3.85;;;;;;;;;;5052115;28;20041;-64
2021/03/23 02:23:20;;;;;;;8.25;4.43;;;;;;;;;;5063257;22;20045;-61
2021/03/23 02:26:06;;;;;;;6.03;4.37;;;;;;;;;;5033820;28;20055;-62
2021/03/23 02:28:53;;;;;;;8.18;4.53;;;;;;;;;;5035101;28;20103;-61
2021/03/23 02:31:45;;;;;;;9.98;5.10;;;;;;;;;;5046346;28;20045;-62
2021/03/23 02:34:30;;;;;;;8.88;4.93;;;;;;;;;;5072479;28;20048;-61
2021/03/23 02:37:16;;;;;;;11.05;5.30;;;;;;;;;;5062695;28;20079;-61
2021/03/23 02:40:04;;;;;;;11.00;5.82;;;;;;;;;;5074299;28;20415;-61
2021/03/23 02:42:49;;;;;;;8.32;5.05;;;;;;;;;;5058976;28;20064;-62
2021/03/23 02:45:34;;;;;;;10.32;5.75;;;;;;;;;;5067553;28;20518;-61
2021/03/23 02:48:19;;;;;;;9.40;5.72;;;;;;;;;;5073614;28;20125;-61
2021/03/23 02:51:05;;;;;;;10.02;5.63;;;;;;;;;;5073106;28;20049;-61
2021/03/23 02:53:50;;;;;;;10.95;5.30;;;;;;;;;;5073040;28;20045;-61
2021/03/23 02:56:35;;;;;;;10.38;5.20;;;;;;;;;;5073334;28;20049;-62
2021/03/23 02:59:21;;;;;;;10.15;5.25;;;;;;;;;;5073199;28;20075;-61
2021/03/23 03:02:06;;;;;;;8.43;6.03;;;;;;;;;;5072969;28;20060;-61
2021/03/23 03:04:52;;;;;;;9.73;4.95;;;;;;;;;;5072251;28;20219;-61
2021/03/23 03:07:39;;;;;;;12.52;5.22;;;;;;;;;;5072901;28;20045;-62
2021/03/23 03:10:24;;;;;;;7.78;5.50;;;;;;;;;;5073490;28;20478;-61
2021/03/23 03:13:09;;;;;;;9.57;5.70;;;;;;;;;;5073174;28;20056;-61
2021/03/23 03:15:55;;;;;;;9.70;6.35;;;;;;;;;;5072130;28;20047;-62
2021/03/23 03:18:41;;;;;;;15.15;6.32;;;;;;;;;;5072896;28;20048;-61
2021/03/23 03:21:26;;;;;;;9.73;6.10;;;;;;;;;;5072376;28;20052;-61
2021/03/23 03:24:12;;;;;;;10.95;6.03;;;;;;;;;;5074496;28;20185;-61
2021/03/23 03:26:57;;;;;;;14.57;6.70;;;;;;;;;;5056308;28;20052;-62
2021/03/23 03:29:42;;;;;;;10.80;6.50;;;;;;;;;;5055272;28;20069;-61
2021/03/23 03:32:28;;;;;;;10.63;6.80;;;;;;;;;;5055037;28;20037;-62
2021/03/23 03:35:13;;;;;;;13.15;7.60;;;;;;;;;;5057537;28;20063;-63
2021/03/23 03:37:59;;;;;;;14.20;8.15;;;;;;;;;;5074451;28;20044;-63
2021/03/23 03:40:48;;;;;;;14.32;8.85;;;;;;;;;;5075091;28;20044;-64
2021/03/23 03:43:33;;;;;;;15.70;8.27;;;;;;;;;;5073893;28;20056;-63
2021/03/23 03:46:19;;;;;;;16.60;9.43;;;;;;;;;;5064968;28;20040;-64
2021/03/23 03:49:04;;;;;;;15.70;9.27;;;;;;;;;;5054941;28;20075;-64
2021/03/23 03:51:49;;;;;;;15.60;9.48;;;;;;;;;;5054571;28;20049;-64
2021/03/23 03:54:35;;;;;;;16.00;9.57;;;;;;;;;;5054458;28;20483;-64
2021/03/23 03:57:20;;;;;;;16.63;9.50;;;;;;;;;;5069175;28;20049;-64
2021/03/23 04:00:06;;;;;;;16.58;10.07;;;;;;;;;;5074351;28;20040;-63
2021/03/23 04:02:57;;;;;;;14.40;9.73;;;;;;;;;;5074557;28;20051;-63
2021/03/23 04:05:43;;;;;;;18.60;10.02;;;;;;;;;;5074377;28;20052;-64
2021/03/23 04:08:30;;;;;;;17.40;11.02;;;;;;;;;;5054602;28;20037;-64
2021/03/23 04:11:15;;;;;;;19.90;12.13;;;;;;;;;;5054449;28;20128;-64
2021/03/23 04:14:00;;;;;;;18.33;12.00;;;;;;;;;;5054423;28;20098;-63
2021/03/23 04:16:46;;;;;;;17.02;12.20;;;;;;;;;;5057623;28;20048;-63
2021/03/23 04:19:31;;;;;;;22.48;11.95;;;;;;;;;;5074256;28;20494;-63
2021/03/23 04:22:16;;;;;;;18.90;13.60;;;;;;;;;;5072250;28;20056;-63
2021/03/23 04:25:01;;;;;;;17.25;12.13;;;;;;;;;;5055357;28;20037;-64
2021/03/23 04:27:47;;;;;;;18.02;13.35;;;;;;;;;;5073690;28;20410;-64
2021/03/23 04:30:32;;;;;;;20.95;12.82;;;;;;;;;;5074128;28;20048;-64
2021/03/23 04:33:18;;;;;;;16.10;11.77;;;;;;;;;;5073820;28;20564;-63
2021/03/23 04:36:07;;;;;;;16.63;11.70;;;;;;;;;;5073586;28;20044;-64
2021/03/23 04:38:53;;;;;;;17.92;11.60;;;;;;;;;;5058609;28;20124;-63
2021/03/23 04:41:38;;;;;;;20.45;11.73;;;;;;;;;;5053753;28;20052;-63
2021/03/23 04:44:23;;;;;;;19.42;11.32;;;;;;;;;;5053513;28;20387;-63
2021/03/23 04:47:09;;;;;;;21.15;12.80;;;;;;;;;;5054867;28;20064;-63
2021/03/23 04:49:54;;;;;;;15.65;11.25;;;;;;;;;;5053938;28;20049;-64
2021/03/23 04:52:40;;;;;;;18.92;11.98;;;;;;;;;;5058239;28;20418;-64
2021/03/23 04:55:25;;;;;;;13.80;10.90;;;;;;;;;;5072776;28;20479;-63
2021/03/23 04:58:10;;;;;;;18.40;11.35;;;;;;;;;;5073546;28;20544;-64
2021/03/23 05:00:56;;;;;;;14.98;10.95;;;;;;;;;;5073632;28;20049;-64
2021/03/23 05:03:41;;;;;;;14.88;11.18;;;;;;;;;;5073442;28;20044;-63
2021/03/23 05:06:27;;;;;;;17.92;11.75;;;;;;;;;;5065347;28;20045;-63
2021/03/23 05:09:13;;;;;;;16.38;11.48;;;;;;;;;;5053533;28;20053;-63
2021/03/23 05:11:58;;;;;;;15.20;12.23;;;;;;;;;;5053149;28;20044;-64
2021/03/23 05:14:43;;;;;;;17.52;12.65;;;;;;;;;;5052931;28;20495;-63
2021/03/23 05:17:28;;;;;;;23.48;12.13;;;;;;;;;;5066326;28;20052;-63
2021/03/23 05:20:14;;;;;;;17.33;12.23;;;;;;;;;;5073075;28;20487;-64
2021/03/23 05:22:59;;;;;;;15.48;12.15;;;;;;;;;;5072899;28;20517;-63
2021/03/23 05:25:45;;;;;;;21.67;13.15;;;;;;;;;;5072722;28;20486;-64
2021/03/23 05:28:30;;;;;;;19.98;13.35;;;;;;;;;;5053851;28;20112;-64
2021/03/23 05:31:16;;;;;;;18.48;12.40;;;;;;;;;;5052875;28;20072;-64
2021/03/23 05:34:01;;;;;;;17.48;12.75;;;;;;;;;;5052847;28;20119;-64
2021/03/23 05:36:46;;;;;;;20.00;12.70;;;;;;;;;;5054230;28;20072;-64
2021/03/23 05:39:31;;;;;;;22.27;13.73;;;;;;;;;;5072816;28;20125;-64
2021/03/23 05:42:25;;;;;;;18.13;12.82;;;;;;;;;;5072698;28;20044;-64
2021/03/23 05:45:11;;;;;;;20.45;12.63;;;;;;;;;;5071303;28;20521;-64
2021/03/23 05:48:16;;;;;;;18.02;11.05;;;;;;;;;;5063829;28;20036;-64
2021/03/23 05:51:17;;;;;;;23.35;12.63;;;;;;;;;;5051784;28;20044;-64
2021/03/23 05:54:17;;;;;;;19.60;12.27;;;;;;;;;;5051520;28;20053;-64
2021/03/23 05:57:05;;;;;;;18.38;12.75;;;;;;;;;;5052579;28;20127;-64
2021/03/23 05:59:52;;;;;;;18.95;12.75;;;;;;;;;;5051532;28;20079;-64
2021/03/23 06:02:43;;;;;;;18.27;12.48;;;;;;;;;;5052275;28;20041;-64
2021/03/23 06:05:29;;;;;;;15.75;12.18;;;;;;;;;;5052318;28;20045;-64
2021/03/23 06:08:33;;;;;;;17.77;11.32;;;;;;;;;;5057047;28;20044;-64
2021/03/23 06:11:30;;;;;;;19.70;12.38;;;;;;;;;;5072039;28;20053;-64
2021/03/23 06:14:18;;;;;;;19.27;12.68;;;;;;;;;;5071076;28;20048;-63
2021/03/23 06:17:09;;;;;;;18.55;12.18;;;;;;;;;;5072165;28;20441;-64
2021/03/23 06:20:12;;;;;;;17.95;12.30;;;;;;;;;;5054966;28;20049;-64
2021/03/23 06:23:01;;;;;;;16.20;12.00;;;;;;;;;;5051920;28;20052;-63
2021/03/23 06:25:47;;;;;;;16.00;10.80;;;;;;;;;;5050706;28;20494;-63
2021/03/23 06:28:41;;;;;;;17.52;11.52;;;;;;;;;;5053633;28;20074;-63
2021/03/23 06:31:40;;;;;;;15.75;10.65;;;;;;;;;;5070971;28;20041;-64
2021/03/23 06:34:26;;;;;;;19.88;11.65;;;;;;;;;;5070932;28;20044;-63
2021/03/23 06:37:22;;;;;;;18.83;10.98;;;;;;;;;;5064075;28;20144;-64
2021/03/23 06:40:17;;;;;;;19.42;11.45;;;;;;;;;;5052397;28;20041;-63
2021/03/23 06:43:18;;;;;;;17.50;11.30;;;;;;;;;;5051772;28;20045;-64
2021/03/23 06:46:04;;;;;;;18.17;11.45;;;;;;;;;;5052717;28;20049;-63
2021/03/23 06:49:04;;;;;;;19.77;11.45;;;;;;;;;;5051742;28;20037;-63
2021/03/23 06:51:52;;;;;;;16.00;10.70;;;;;;;;;;5052942;28;20049;-64
2021/03/23 06:54:38;;;;;;;19.48;11.93;;;;;;;;;;5051536;28;20078;-63
2021/03/23 06:57:24;;;;;;;17.50;11.63;;;;;;;;;;5067523;28;20059;-63
2021/03/23 07:00:16;;;;;;;20.23;11.63;;;;;;;;;;5076330;28;20487;-64
2021/03/23 07:03:11;;;;;;;22.52;12.18;;;;;;;;;;5065864;28;20041;-65
2021/03/23 07:05:57;;;;;;;20.80;12.02;;;;;;;;;;5069787;28;20131;-64
2021/03/23 07:08:42;;;;;;;20.50;13.02;;;;;;;;;;5061207;28;20053;-65
2021/03/23 07:11:28;;;;;;;29.17;14.68;;;;;;;;;;5075547;28;20044;-64
2021/03/23 07:14:46;;;;;;;23.52;15.05;;;;;;;;;;5075390;28;20491;-64
2021/03/23 07:17:31;;;;;;;22.83;14.73;;;;;;;;;;5032021;28;20080;-64
2021/03/23 07:20:34;;;;;;;25.63;14.43;;;;;;;;;;5054485;28;20037;-65
2021/03/23 07:23:26;;;;;;;28.17;16.60;;;;;;;;;;5055254;28;20049;-64
2021/03/23 07:26:13;;;;;;;23.88;14.93;;;;;;;;;;5055016;28;20089;-64
2021/03/23 07:29:11;;;;;;;29.35;16.67;;;;;;;;;;5074037;28;20036;-63
2021/03/23 07:32:15;;;;;;;36.70;20.80;;;;;;;;;;5073388;28;20040;-65
2021/03/23 07:35:02;;;;;;;30.77;20.92;;;;;;;;;;5075076;28;20048;-64
2021/03/23 07:37:54;;;;;;;37.80;23.35;;;;;;;;;;5068456;28;20037;-64
2021/03/23 07:40:43;;;;;;;43.72;27.17;;;;;;;;;;5055089;28;20045;-64
2021/03/23 07:43:45;;;;;;;48.05;26.98;;;;;;;;;;5055176;28;20045;-65
2021/03/23 07:46:39;;;;;;;49.10;27.50;;;;;;;;;;5039757;28;20522;-64
2021/03/23 07:49:43;;;;;;;45.72;26.88;;;;;;;;;;5071616;28;20049;-64
2021/03/23 07:52:31;;;;;;;53.50;27.55;;;;;;;;;;5074949;28;20131;-63
2021/03/23 07:55:20;;;;;;;47.80;27.60;;;;;;;;;;5059633;28;20098;-64
2021/03/23 07:58:24;;;;;;;50.85;29.70;;;;;;;;;;5071206;28;20041;-64
2021/03/23 08:01:17;;;;;;;45.50;28.80;;;;;;;;;;5055800;28;20043;-64
2021/03/23 08:04:13;;;;;;;53.22;28.70;;;;;;;;;;5053979;28;20040;-64
2021/03/23 08:07:05;;;;;;;48.78;30.70;;;;;;;;;;5053627;28;20120;-64
2021/03/23 08:10:02;;;;;;;46.58;28.63;;;;;;;;;;5068408;28;20167;-64
2021/03/23 08:12:50;;;;;;;48.20;28.55;;;;;;;;;;5069526;28;20037;-64
2021/03/23 08:15:41;;;;;;;50.00;31.85;;;;;;;;;;5068183;28;20112;-64
2021/03/23 08:19:02;;;;;;;53.20;30.88;;;;;;;;;;5070735;28;20045;-65
2021/03/23 08:22:00;;;;;;;51.92;31.50;;;;;;;;;;5050881;22;20026;-66
2021/03/23 08:24:48;;;;;;;47.83;30.85;;;;;;;;;;5062656;28;20044;-65
2021/03/23 08:27:36;;;;;;;49.95;30.95;;;;;;;;;;5075159;28;20111;-65
2021/03/23 08:30:28;;;;;;;51.08;31.20;;;;;;;;;;5062941;28;20041;-66
2021/03/23 08:33:17;;;;;;;50.13;31.92;;;;;;;;;;5063893;28;20045;-65
2021/03/23 08:36:08;;;;;;;50.72;33.00;;;;;;;;;;5066268;28;20055;-69
2021/03/23 08:39:03;;;;;;;51.53;32.50;;;;;;;;;;5065315;28;20064;-66
2021/03/23 08:41:53;;;;;;;51.05;32.45;;;;;;;;;;5066040;28;20037;-65
2021/03/23 08:44:48;;;;;;;48.67;30.25;;;;;;;;;;5061815;28;20041;-65
2021/03/23 08:47:41;;;;;;;46.28;30.42;;;;;;;;;;5066946;28;20055;-66
2021/03/23 08:50:39;;;;;;;48.92;31.13;;;;;;;;;;5068005;28;20067;-66
2021/03/23 08:53:32;;;;;;;43.08;30.77;;;;;;;;;;5063247;28;20117;-64
2021/03/23 08:56:20;;;;;;;47.50;29.60;;;;;;;;;;5061297;28;20051;-64
2021/03/23 08:59:05;;;;;;;42.28;29.40;;;;;;;;;;5072514;28;20044;-64
2021/03/23 09:01:51;;;;;;;42.00;28.90;;;;;;;;;;5073466;28;20053;-64
2021/03/23 09:04:37;;;;;;;40.78;27.25;;;;;;;;;;5070613;28;20112;-65
2021/03/23 09:07:23;;;;;;;38.67;27.50;;;;;;;;;;5073544;28;20501;-66
2021/03/23 09:10:36;;;;;;;41.33;26.75;;;;;;;;;;5062957;28;20045;-64
2021/03/23 09:13:22;;;;;;;;;;;;;;;;;;5058667;28;20452;-64
2021/03/23 09:16:13;;;;;;;37.85;27.30;;;;;;;;;;5060595;28;20356;-65
2021/03/23 09:19:02;;;;;;;41.53;25.95;;;;;;;;;;5072308;28;20079;-66
2021/03/23 09:21:56;;;;;;;33.75;24.15;;;;;;;;;;5061033;28;20069;-63
2021/03/23 09:24:42;;;;;;;39.80;24.63;;;;;;;;;;5059322;28;20052;-62
2021/03/23 09:27:27;;;;;;;30.30;22.13;;;;;;;;;;5065758;28;20045;-65
2021/03/23 09:30:32;;;;;;;28.65;23.23;;;;;;;;;;5069135;28;20036;-63
2021/03/23 09:33:23;;;;;;;38.60;25.35;;;;;;;;;;5060444;28;20053;-63
2021/03/23 09:36:12;;;;;;;33.40;24.13;;;;;;;;;;5061411;28;20045;-63
2021/03/23 09:39:16;;;;;;;34.35;24.45;;;;;;;;;;5066969;28;20041;-64
2021/03/23 09:42:27;;;;;;;33.67;22.63;;;;;;;;;;5063994;28;20045;-63
2021/03/23 09:45:12;;;;;;;34.00;23.05;;;;;;;;;;5069996;28;20041;-63
2021/03/23 09:48:00;;;;;;;30.58;23.05;;;;;;;;;;5072550;28;20417;-65
2021/03/23 09:50:58;;;;;;;34.63;24.63;;;;;;;;;;5065278;28;20044;-66
2021/03/23 09:53:43;;;;;;;39.03;25.17;;;;;;;;;;5060602;28;20402;-65
2021/03/23 09:56:37;;;;;;;32.08;24.45;;;;;;;;;;5061092;28;20045;-65
2021/03/23 09:59:23;;;;;;;34.50;24.77;;;;;;;;;;5063180;28;20087;-65
2021/03/23 10:02:17;;;;;;;34.13;24.27;;;;;;;;;;5065021;28;20430;-64
2021/03/23 10:05:15;;;;;;;34.47;23.75;;;;;;;;;;5064471;28;20562;-65
2021/03/23 10:08:11;;;;;;;32.40;25.38;;;;;;;;;;5062803;28;20131;-64
2021/03/23 10:11:05;;;;;;;29.42;24.17;;;;;;;;;;5063502;28;20041;-65
2021/03/23 10:13:53;;;;;;;32.10;23.65;;;;;;;;;;5077971;28;20507;-65
2021/03/23 10:16:42;;;;;;;30.70;25.33;;;;;;;;;;5063494;28;20048;-64
2021/03/23 10:19:27;;;;;;;32.10;23.55;;;;;;;;;;5056292;28;20419;-64
2021/03/23 10:22:14;;;;;;;29.23;24.33;;;;;;;;;;5053248;28;20049;-64
2021/03/23 10:25:00;;;;;;;34.40;25.98;;;;;;;;;;5051875;28;20052;-63
2021/03/23 10:27:45;;;;;;;34.72;25.80;;;;;;;;;;5051259;28;20143;-63
2021/03/23 10:30:30;;;;;;;36.65;27.33;;;;;;;;;;5059117;28;20091;-65
2021/03/23 10:33:18;;;;;;;34.25;25.45;;;;;;;;;;5068131;28;20098;-64
2021/03/23 10:36:10;;;;;;;36.92;25.52;;;;;;;;;;5069740;28;20041;-64
2021/03/23 10:38:55;;;;;;;36.00;26.40;;;;;;;;;;5072643;28;20510;-64
2021/03/23 10:41:40;;;;;;;37.30;27.00;;;;;;;;;;5059389;28;20413;-64
2021/03/23 10:44:27;;;;;;;40.83;27.08;;;;;;;;;;5072497;28;20124;-64
2021/03/23 10:47:15;;;;;;;32.60;24.75;;;;;;;;;;5071417;28;20040;-64
2021/03/23 10:50:16;;;;;;;32.55;23.88;;;;;;;;;;5072302;28;20049;-63
2021/03/23 10:53:11;;;;;;;33.78;24.48;;;;;;;;;;5062812;28;20514;-64
2021/03/23 10:55:56;;;;;;;34.83;25.98;;;;;;;;;;5071579;28;20041;-64
2021/03/23 10:58:41;;;;;;;38.95;25.73;;;;;;;;;;5064699;28;20045;-64
2021/03/23 11:01:26;;;;;;;36.65;26.67;;;;;;;;;;5058747;28;20119;-63
2021/03/23 11:04:12;;;;;;;33.85;24.63;;;;;;;;;;5070484;28;20545;-64
2021/03/23 11:07:16;;;;;;;33.97;23.95;;;;;;;;;;5071796;28;20040;-64
2021/03/23 11:10:01;;;;;;;33.38;25.40;;;;;;;;;;5071550;28;20041;-65
2021/03/23 11:12:47;;;;;;;37.83;27.77;;;;;;;;;;5051576;28;20049;-64
2021/03/23 11:15:39;;;;;;;36.97;29.05;;;;;;;;;;5066505;28;20429;-63
2021/03/23 11:18:28;;;;;;;41.08;30.60;;;;;;;;;;5063949;28;20041;-64
2021/03/23 11:21:17;;;;;;;38.97;30.40;;;;;;;;;;5058507;28;20051;-63
2021/03/23 11:24:05;;;;;;;40.80;30.73;;;;;;;;;;5055669;28;20060;-64
2021/03/23 11:26:50;;;;;;;35.60;28.58;;;;;;;;;;5059023;28;20057;-64
2021/03/23 11:29:35;;;;;;;42.28;29.45;;;;;;;;;;5059771;28;20049;-64
2021/03/23 11:32:22;;;;;;;39.58;30.15;;;;;;;;;;5061000;28;20135;-64
2021/03/23 11:35:08;;;;;;;41.10;30.38;;;;;;;;;;5056026;28;20051;-63
2021/03/23 11:37:53;;;;;;;41.55;30.92;;;;;;;;;;5064646;28;20049;-63
2021/03/23 11:40:39;;;;;;;42.95;31.23;;;;;;;;;;5069385;28;20052;-64
2021/03/23 11:43:40;;;;;;;44.75;32.10;;;;;;;;;;5066195;28;20045;-65
2021/03/23 11:46:30;;;;;;;42.25;32.05;;;;;;;;;;5072265;28;20037;-64
2021/03/23 11:49:23;;;;;;;49.35;33.63;;;;;;;;;;5074197;28;20052;-65
2021/03/23 11:52:09;;;;;;;45.70;33.13;;;;;;;;;;5083568;28;20075;-65
2021/03/23 11:54:54;;;;;;;48.13;35.92;;;;;;;;;;5059847;28;20083;-64
2021/03/23 11:57:39;;;;;;;52.20;34.38;;;;;;;;;;5068754;28;20052;-65
2021/03/23 12:00:27;;;;;;;46.35;34.30;;;;;;;;;;5074034;28;20538;-64
2021/03/23 12:03:12;;;;;;;45.33;33.35;;;;;;;;;;5063196;28;20449;-65
2021/03/23 12:05:58;;;;;;;44.13;32.15;;;;;;;;;;5061947;28;20514;-65
2021/03/23 12:08:46;;;;;;;50.90;34.28;;;;;;;;;;5071361;28;20041;-65
2021/03/23 12:11:32;;;;;;;43.88;31.95;;;;;;;;;;5082851;28;20044;-65
2021/03/23 12:14:24;;;;;;;43.95;31.65;;;;;;;;;;5069341;28;20045;-64
2021/03/23 12:17:11;;;;;;;40.60;30.77;;;;;;;;;;5059086;28;20486;-64
2021/03/23 12:20:04;;;;;;;43.42;33.70;;;;;;;;;;5074329;28;20041;-65
2021/03/23 12:22:50;;;;;;;39.90;30.73;;;;;;;;;;5071863;28;20045;-64
2021/03/23 12:25:35;;;;;;;39.10;30.50;;;;;;;;;;5064775;28;20473;-63
2021/03/23 12:28:20;;;;;;;42.15;31.92;;;;;;;;;;5068884;28;20053;-64
2021/03/23 12:31:06;;;;;;;41.15;30.63;;;;;;;;;;5059796;28;20071;-64
2021/03/23 12:33:52;;;;;;;42.42;33.10;;;;;;;;;;5066800;28;20052;-63
2021/03/23 12:36:38;;;;;;;41.83;32.50;;;;;;;;;;5074154;28;20036;-64
2021/03/23 12:39:24;;;;;;;43.67;32.58;;;;;;;;;;5066617;28;20048;-64
2021/03/23 12:42:10;;;;;;;43.92;33.42;;;;;;;;;;5063610;28;20044;-63
2021/03/23 12:44:55;;;;;;;43.38;33.10;;;;;;;;;;5058170;28;20040;-65
2021/03/23 12:47:40;;;;;;;46.78;34.20;;;;;;;;;;5073241;28;20510;-64
2021/03/23 12:50:26;;;;;;;45.83;34.47;;;;;;;;;;5074345;28;20052;-64
2021/03/23 12:53:14;;;;;;;39.03;30.83;;;;;;;;;;5060633;28;20048;-64
2021/03/23 12:55:59;;;;;;;43.60;33.10;;;;;;;;;;5074320;28;20044;-63
2021/03/23 12:58:45;;;;;;;46.75;33.50;;;;;;;;;;5070577;28;20044;-64
2021/03/23 13:01:30;;;;;;;42.53;33.25;;;;;;;;;;5075826;28;20076;-63
2021/03/23 13:04:16;;;;;;;42.88;33.50;;;;;;;;;;5072256;28;20048;-65
2021/03/23 13:07:01;;;;;;;41.00;33.00;;;;;;;;;;5073981;28;20071;-67
2021/03/23 13:09:46;;;;;;;40.47;32.90;;;;;;;;;;5075890;28;20049;-64
2021/03/23 13:12:31;;;;;;;43.90;33.28;;;;;;;;;;5070299;28;20049;-65
2021/03/23 13:15:17;;;;;;;42.85;31.90;;;;;;;;;;5071216;28;20044;-65
2021/03/23 13:18:03;;;;;;;39.00;29.85;;;;;;;;;;5060187;28;20049;-63
2021/03/23 13:20:48;;;;;;;40.80;32.40;;;;;;;;;;5069568;28;20044;-64
2021/03/23 13:23:59;;;;;;;38.90;30.15;;;;;;;;;;5060745;28;20131;-64
2021/03/23 13:26:44;;;;;;;40.03;29.98;;;;;;;;;;5056001;28;20060;-65
2021/03/23 13:29:30;;;;;;;40.92;31.52;;;;;;;;;;5072767;28;20491;-64
2021/03/23 13:32:15;;;;;;;37.90;30.40;;;;;;;;;;5057873;28;20064;-63
2021/03/23 13:35:01;;;;;;;40.53;31.83;;;;;;;;;;5061394;28;20091;-65
2021/03/23 13:37:46;;;;;;;39.97;32.15;;;;;;;;;;5062906;28;20044;-64
2021/03/23 13:40:32;;;;;;;38.70;29.95;;;;;;;;;;5067543;28;20045;-66
2021/03/23 13:43:19;;;;;;;42.45;32.33;;;;;;;;;;5065561;28;20112;-65
2021/03/23 13:46:08;;;;;;;38.83;30.90;;;;;;;;;;5062605;28;20047;-65
2021/03/23 13:48:54;;;;;;;41.97;30.00;;;;;;;;;;5060693;28;20067;-65
2021/03/23 13:51:39;;;;;;;42.63;32.85;;;;;;;;;;5062044;28;20044;-65
2021/03/23 13:54:24;;;;;;;40.80;30.65;;;;;;;;;;5066278;28;20490;-65
2021/03/23 13:57:10;;;;;;;41.53;30.52;;;;;;;;;;5057729;28;20494;-65
2021/03/23 13:59:55;;;;;;;45.28;30.45;;;;;;;;;;5065163;28;20049;-65
2021/03/23 14:02:40;;;;;;;40.33;30.88;;;;;;;;;;5061522;28;20048;-65
2021/03/23 14:05:25;;;;;;;41.70;32.35;;;;;;;;;;5070941;28;20448;-65
2021/03/23 14:08:17;;;;;;;41.45;29.05;;;;;;;;;;5071450;28;20052;-64
2021/03/23 14:11:03;;;;;;;43.58;31.23;;;;;;;;;;5056623;28;20500;-63
2021/03/23 14:13:48;;;;;;;39.45;29.23;;;;;;;;;;5084684;28;20041;-63
2021/03/23 14:16:34;;;;;;;38.35;30.20;;;;;;;;;;5055065;28;20159;-64
2021/03/23 14:19:20;;;;;;;40.53;29.60;;;;;;;;;;5064774;28;20040;-64
2021/03/23 14:22:06;;;;;;;38.90;30.88;;;;;;;;;;5060566;28;20091;-65
2021/03/23 14:24:52;;;;;;;39.45;30.13;;;;;;;;;;5066282;28;20074;-64
2021/03/23 14:27:37;;;;;;;35.70;30.42;;;;;;;;;;5062250;28;20125;-64
2021/03/23 14:30:34;;;;;;;37.03;30.38;;;;;;;;;;5051810;28;20422;-64
2021/03/23 14:33:19;;;;;;;36.22;30.30;;;;;;;;;;5052076;28;20048;-64
2021/03/23 14:36:04;;;;;;;37.80;30.98;;;;;;;;;;5056921;28;20041;-64
2021/03/23 14:38:50;;;;;;;39.65;33.38;;;;;;;;;;5051516;28;20048;-64
2021/03/23 14:41:42;;;;;;;43.58;30.63;;;;;;;;;;5061619;28;20053;-64
2021/03/23 14:44:27;;;;;;;42.03;31.17;;;;;;;;;;5054969;28;20056;-64
2021/03/23 14:47:20;;;;;;;40.13;31.73;;;;;;;;;;5063009;28;20049;-64
2021/03/23 14:50:06;;;;;;;50.78;32.40;;;;;;;;;;5065693;28;20132;-64
2021/03/23 14:52:52;;;;;;;40.70;30.40;;;;;;;;;;5051419;28;20049;-64
2021/03/23 14:55:37;;;;;;;43.22;32.47;;;;;;;;;;5061651;28;20049;-64
2021/03/23 14:58:22;;;;;;;43.63;32.65;;;;;;;;;;5080985;28;20051;-63
2021/03/23 15:01:08;;;;;;;45.58;32.63;;;;;;;;;;5065207;28;20053;-64
2021/03/23 15:03:53;;;;;;;51.92;34.03;;;;;;;;;;5064056;28;20049;-64
2021/03/23 15:06:38;;;;;;;41.22;31.80;;;;;;;;;;5053767;28;20131;-64
2021/03/23 15:09:24;;;;;;;40.45;32.67;;;;;;;;;;5058907;28;20125;-64
2021/03/23 15:12:11;;;;;;;41.70;34.38;;;;;;;;;;5084497;28;20083;-64
2021/03/23 15:14:57;;;;;;;42.83;32.15;;;;;;;;;;5050837;28;20523;-64
2021/03/23 15:17:42;;;;;;;41.33;32.72;;;;;;;;;;5051666;28;20103;-64
2021/03/23 15:20:29;;;;;;;41.80;31.52;;;;;;;;;;5072655;28;20049;-64
2021/03/23 15:23:34;;;;;;;47.00;33.45;;;;;;;;;;5067889;28;20095;-64
2021/03/23 15:26:26;;;;;;;57.90;34.63;;;;;;;;;;5071156;28;20040;-64
2021/03/23 15:29:13;;;;;;;39.55;31.15;;;;;;;;;;5068002;28;20045;-64
2021/03/23 15:32:00;;;;;;;48.50;33.13;;;;;;;;;;5081124;28;20131;-64
2021/03/23 15:34:45;;;;;;;40.10;29.52;;;;;;;;;;5058071;28;20044;-63
2021/03/23 15:37:31;;;;;;;62.63;33.88;;;;;;;;;;5068526;28;20044;-65
2021/03/23 15:40:16;;;;;;;48.90;32.05;;;;;;;;;;5059165;28;20045;-65
2021/03/23 15:43:01;;;;;;;42.80;32.60;;;;;;;;;;5060481;28;20495;-64
2021/03/23 15:45:47;;;;;;;56.03;35.40;;;;;;;;;;5074792;28;20046;-65
2021/03/23 15:48:32;;;;;;;53.40;36.08;;;;;;;;;;5063984;28;20052;-65
2021/03/23 15:51:26;;;;;;;39.20;32.55;;;;;;;;;;5062625;28;20084;-65
2021/03/23 15:54:14;;;;;;;53.88;32.03;;;;;;;;;;5074753;28;20068;-65
2021/03/23 15:56:59;;;;;;;56.38;32.67;;;;;;;;;;5059783;28;20040;-65
2021/03/23 15:59:45;;;;;;;40.97;31.60;;;;;;;;;;5073486;28;20123;-65
2021/03/23 16:02:30;;;;;;;45.13;31.55;;;;;;;;;;5070945;28;20068;-65
2021/03/23 16:05:16;;;;;;;40.78;30.83;;;;;;;;;;5061569;28;20055;-64
2021/03/23 16:08:03;;;;;;;54.75;33.53;;;;;;;;;;5060995;28;20087;-64
2021/03/23 16:11:09;;;;;;;45.30;29.55;;;;;;;;;;5053640;28;20138;-64
2021/03/23 16:14:15;;;;;;;46.83;32.13;;;;;;;;;;5068894;28;20051;-64
2021/03/23 16:17:20;;;;;;;45.78;33.03;;;;;;;;;;5061244;28;20499;-64
2021/03/23 16:20:25;;;;;;;48.10;32.72;;;;;;;;;;5058092;28;20048;-65
2021/03/23 16:23:35;;;;;;;42.00;31.10;;;;;;;;;;5063694;28;20106;-65
2021/03/23 16:26:40;;;;;;;46.05;33.22;;;;;;;;;;5069869;28;20122;-65
2021/03/23 16:29:45;;;;;;;47.55;32.28;;;;;;;;;;5063406;28;20040;-65